Aviation Digital Data Service (ADDS)

Output produced by METARs form (1648 UTC 27 February 2015)
found at http://www.aviationweather.gov/adds/metars/
 
KSEG 271553Z AUTO VRB04KT 10SM CLR M07/M16 A3044 RMK AO2 SLP317 T10721161
KSEG 271453Z AUTO 01005KT 10SM CLR M08/M16 A3044 RMK AO2 SLP318 T10831161 51029
KSEG 271353Z AUTO 35006KT 10SM OVC044 M09/M17 A3043 RMK AO2 SLP314 T10941167
KSEG 271253Z AUTO 01005KT 10SM CLR M10/M16 A3040 RMK AO2 SLP303 T11001161
KSEG 271153Z AUTO 06005KT 10SM SCT043 M11/M16 A3036 RMK AO2 SLP288 T11061161 11078 21106 51030
KSEG 271053Z AUTO 02006KT 10SM BKN045 OVC100 M10/M16 A3034 RMK AO2 SLP281 T11001156
KSEG 270953Z AUTO 01005KT 10SM BKN049 BKN100 M10/M14 A3031 RMK AO2 SLP270 T11001144
KSEG 270853Z AUTO 02007KT 10SM SCT037 OVC110 M09/M14 A3027 RMK AO2 SLP257 T10941139 51025
KSEG 270753Z AUTO 03007KT 10SM OVC036 M08/M14 A3024 RMK AO2 SLP248 T10831139
KSEG 270653Z AUTO 02009KT 10SM OVC043 M08/M13 A3022 RMK AO2 SLP241 T10781133
KSEG 270553Z AUTO 36004KT 10SM OVC041 M09/M12 A3019 RMK AO2 SLP232 T10941122 11044 21106 53017
KSEG 270453Z AUTO 02005KT 10SM FEW035 M09/M13 A3016 RMK AO2 SLP222 T10941133 410281100
KSEG 270353Z AUTO 03005KT 10SM CLR M08/M13 A3015 RMK AO2 SLP216 T10781128
KSEG 270253Z AUTO 34005KT 10SM OVC065 M07/M12 A3014 RMK AO2 SLP215 T10721122 51030
KSEG 270153Z AUTO 00000KT 10SM OVC050 M06/M12 A3012 RMK AO2 SLP205 T10561117
KSEG 270053Z AUTO 00000KT 10SM OVC055 M06/M11 A3008 RMK AO2 SLP195 T10561111
KSEG 262353Z AUTO 00000KT 10SM CLR M06/M11 A3005 RMK AO2 SLP184 T10561111 11028 21061 53021
KSEG 262253Z AUTO 00000KT 10SM CLR M03/M11 A3001 RMK AO2 SLP170 T10331111
KSEG 262153Z AUTO 00000KT 10SM SCT060 SCT075 OVC100 M03/M11 A3000 RMK AO2 SLP164 T10281106
KSEG 262053Z AUTO 06003KT 10SM BKN070 BKN100 M03/M12 A2999 RMK AO2 SLP162 T10331117 53007
KSEG 261953Z AUTO 06006KT 10SM BKN100 M04/M12 A2997 RMK AO2 SLP157 T10391117
KSEG 261853Z AUTO 02005KT 10SM SCT065 M04/M11 A2997 RMK AO2 SLP154 T10441111
KSEG 261753Z AUTO 01006KT 10SM FEW033 BKN055 BKN070 M05/M11 A2997 RMK AO2 SLP155 60000 T10501106 11050 21078 58017
KSEG 261704Z AUTO 33006KT 10SM FEW019 FEW027 BKN033 M06/M11 A2998 RMK AO2 T10561106
KSEG 261653Z AUTO 04004KT 9SM BKN026 OVC034 M06/M11 A2999 RMK AO2 SNE53 SLP162 P0000 T10561106
KSEG 261642Z AUTO 01005KT 3SM -SN BKN020 OVC031 M06/M11 A2999 RMK AO2 P0000 T10611106
KSEG 261626Z AUTO 03004KT 1 3/4SM -SN BKN026 OVC033 M06/M11 A3000 RMK AO2 P0000 T10611111
KSEG 261613Z AUTO 05003KT 2SM -SN BKN035 OVC044 M07/M11 A3001 RMK AO2 P0000 T10671111
KSEG 261553Z AUTO 03004KT 3SM -SN BKN030 OVC045 M07/M11 A3001 RMK AO2 SLP170 P0000 T10671111
KSEG 261550Z AUTO 03004KT 3SM -SN OVC030 M07/M11 A3001 RMK AO2 P0000
KSEG 261544Z AUTO 05005KT 2 1/2SM -SN BKN025 OVC033 M07/M11 A3000 RMK AO2 P0000 T10721111
KSEG 261509Z AUTO 01006KT 1 1/2SM -SN BKN024 BKN029 OVC035 M07/M12 A3001 RMK AO2 P0000 T10721122
KSEG 261456Z AUTO 36006KT 2 1/2SM -SN BKN029 OVC037 M08/M13 A3002 RMK AO2 P0000 T10781128
KSEG 261453Z AUTO 01007KT 3SM -SN FEW028 BKN035 OVC045 M08/M13 A3002 RMK AO2 SNB41 SLP174 P0000 60000 T10781128 53004
KSEG 261353Z AUTO 05009KT 10SM OVC050 M07/M15 A3002 RMK AO2 SLP171 T10721150
KSEG 261253Z AUTO 05010KT 10SM OVC070 M08/M16 A3001 RMK AO2 SLP169 T10781161
KSEG 261153Z AUTO 02009KT 10SM OVC090 M08/M16 A3001 RMK AO2 SLP169 T10781161 11033 21078 53009
KSEG 261053Z AUTO 04009KT 10SM OVC095 M08/M17 A2999 RMK AO2 SLP162 T10781167
KSEG 260953Z AUTO 05007KT 10SM BKN120 M07/M16 A2999 RMK AO2 SLP159 T10721161
KSEG 260853Z AUTO 06009KT 10SM OVC110 M06/M16 A2998 RMK AO2 SLP158 T10611156 56006
KSEG 260753Z AUTO 06010KT 10SM CLR M06/M16 A2999 RMK AO2 SLP160 T10561156
KSEG 260653Z AUTO 04008KT 10SM BKN120 M04/M13 A2998 RMK AO2 SLP156 T10391133
KSEG 260553Z AUTO 36007KT 10SM CLR M03/M14 A3000 RMK AO2 SLP163 T10331139 11006 21061 53014
KSEG 260453Z AUTO 01009KT 10SM CLR M03/M14 A2998 RMK AO2 SLP157 T10281139 400281150